sensor_id;sensor_type;location;lat;lon;timestamp;temperature;humidity
73360;DHT22;63092;43.582;19.528;2023-05-21T00:02:25;15.80;99.90
73360;DHT22;63092;43.582;19.528;2023-05-21T00:04:54;15.80;99.90
73360;DHT22;63092;43.582;19.528;2023-05-21T00:07:20;15.70;99.90
73360;DHT22;63092;43.582;19.528;2023-05-21T00:09:46;15.60;99.90
73360;DHT22;63092;43.582;19.528;2023-05-21T00:12:11;15.50;99.90
73360;DHT22;63092;43.582;19.528;2023-05-21T00:14:37;15.60;99.90
73360;DHT22;63092;43.582;19.528;2023-05-21T00:17:03;15.70;99.90
73360;DHT22;63092;43.582;19.528;2023-05-21T00:19:29;15.60;99.90
73360;DHT22;63092;43.582;19.528;2023-05-21T00:21:57;15.50;99.90
73360;DHT22;63092;43.582;19.528;2023-05-21T00:24:22;15.40;99.90
73360;DHT22;63092;43.582;19.528;2023-05-21T00:26:48;15.30;99.90
73360;DHT22;63092;43.582;19.528;2023-05-21T00:29:14;14.90;99.90
73360;DHT22;63092;43.582;19.528;2023-05-21T00:31:40;15.00;99.90
73360;DHT22;63092;43.582;19.528;2023-05-21T00:34:05;14.90;99.90
73360;DHT22;63092;43.582;19.528;2023-05-21T00:36:31;14.80;99.90
73360;DHT22;63092;43.582;19.528;2023-05-21T00:38:58;14.80;99.90
73360;DHT22;63092;43.582;19.528;2023-05-21T00:41:24;14.80;99.90
73360;DHT22;63092;43.582;19.528;2023-05-21T00:43:50;14.60;99.90
73360;DHT22;63092;43.582;19.528;2023-05-21T00:46:18;14.50;99.90
73360;DHT22;63092;43.582;19.528;2023-05-21T00:48:46;14.20;99.90
73360;DHT22;63092;43.582;19.528;2023-05-21T00:51:16;14.60;99.90
73360;DHT22;63092;43.582;19.528;2023-05-21T00:53:43;14.40;99.90
73360;DHT22;63092;43.582;19.528;2023-05-21T00:56:10;14.60;99.90
73360;DHT22;63092;43.582;19.528;2023-05-21T00:58:38;14.40;99.90
73360;DHT22;63092;43.582;19.528;2023-05-21T01:01:04;14.50;99.90
73360;DHT22;63092;43.582;19.528;2023-05-21T01:03:31;14.30;99.90
73360;DHT22;63092;43.582;19.528;2023-05-21T01:06:06;14.60;99.90
73360;DHT22;63092;43.582;19.528;2023-05-21T01:08:33;14.50;99.90
73360;DHT22;63092;43.582;19.528;2023-05-21T01:11:01;14.60;99.90
73360;DHT22;63092;43.582;19.528;2023-05-21T01:13:28;14.60;99.90
73360;DHT22;63092;43.582;19.528;2023-05-21T01:15:54;14.50;99.90
73360;DHT22;63092;43.582;19.528;2023-05-21T01:18:22;14.40;99.90
73360;DHT22;63092;43.582;19.528;2023-05-21T01:20:48;14.50;99.90
73360;DHT22;63092;43.582;19.528;2023-05-21T01:23:18;14.50;99.90
73360;DHT22;63092;43.582;19.528;2023-05-21T01:25:45;14.60;99.90
73360;DHT22;63092;43.582;19.528;2023-05-21T01:28:12;14.60;99.90
73360;DHT22;63092;43.582;19.528;2023-05-21T01:30:40;14.60;99.90
73360;DHT22;63092;43.582;19.528;2023-05-21T01:33:25;14.70;99.90
73360;DHT22;63092;43.582;19.528;2023-05-21T01:36:07;14.70;99.90
73360;DHT22;63092;43.582;19.528;2023-05-21T01:38:53;14.60;99.90
73360;DHT22;63092;43.582;19.528;2023-05-21T01:41:20;14.60;99.90
73360;DHT22;63092;43.582;19.528;2023-05-21T01:43:47;14.60;99.90
73360;DHT22;63092;43.582;19.528;2023-05-21T01:46:19;14.50;99.90
73360;DHT22;63092;43.582;19.528;2023-05-21T01:48:45;14.50;99.90
73360;DHT22;63092;43.582;19.528;2023-05-21T01:51:12;14.50;99.90
73360;DHT22;63092;43.582;19.528;2023-05-21T01:53:38;14.50;99.90
73360;DHT22;63092;43.582;19.528;2023-05-21T01:56:05;14.40;99.90
73360;DHT22;63092;43.582;19.528;2023-05-21T01:58:31;14.30;99.90
73360;DHT22;63092;43.582;19.528;2023-05-21T02:00:57;14.20;99.90
73360;DHT22;63092;43.582;19.528;2023-05-21T02:03:24;14.30;99.90
73360;DHT22;63092;43.582;19.528;2023-05-21T02:05:51;14.30;99.90
73360;DHT22;63092;43.582;19.528;2023-05-21T02:08:17;14.30;99.90
73360;DHT22;63092;43.582;19.528;2023-05-21T02:10:44;14.00;99.90
73360;DHT22;63092;43.582;19.528;2023-05-21T02:13:10;13.70;99.90
73360;DHT22;63092;43.582;19.528;2023-05-21T02:15:36;13.90;99.90
73360;DHT22;63092;43.582;19.528;2023-05-21T02:18:03;13.90;99.90
73360;DHT22;63092;43.582;19.528;2023-05-21T02:20:29;13.90;99.90
73360;DHT22;63092;43.582;19.528;2023-05-21T02:22:55;14.00;99.90
73360;DHT22;63092;43.582;19.528;2023-05-21T02:25:21;14.00;99.90
73360;DHT22;63092;43.582;19.528;2023-05-21T02:27:47;14.10;99.90
73360;DHT22;63092;43.582;19.528;2023-05-21T02:30:17;14.10;99.90
73360;DHT22;63092;43.582;19.528;2023-05-21T02:32:43;14.10;99.90
73360;DHT22;63092;43.582;19.528;2023-05-21T02:35:10;13.70;99.90
73360;DHT22;63092;43.582;19.528;2023-05-21T02:37:36;13.80;99.90
73360;DHT22;63092;43.582;19.528;2023-05-21T02:40:04;13.50;99.90
73360;DHT22;63092;43.582;19.528;2023-05-21T02:42:30;13.40;99.90
73360;DHT22;63092;43.582;19.528;2023-05-21T02:44:56;13.40;99.90
73360;DHT22;63092;43.582;19.528;2023-05-21T02:47:22;13.50;99.90
73360;DHT22;63092;43.582;19.528;2023-05-21T02:49:49;13.50;99.90
73360;DHT22;63092;43.582;19.528;2023-05-21T02:52:15;13.60;99.90
73360;DHT22;63092;43.582;19.528;2023-05-21T02:54:45;13.50;99.90
73360;DHT22;63092;43.582;19.528;2023-05-21T02:57:11;13.60;99.90
73360;DHT22;63092;43.582;19.528;2023-05-21T02:59:37;13.60;99.90
73360;DHT22;63092;43.582;19.528;2023-05-21T03:02:03;13.60;99.90
73360;DHT22;63092;43.582;19.528;2023-05-21T03:04:28;13.60;99.90
73360;DHT22;63092;43.582;19.528;2023-05-21T03:06:55;13.60;99.90
73360;DHT22;63092;43.582;19.528;2023-05-21T03:09:21;13.70;99.90
73360;DHT22;63092;43.582;19.528;2023-05-21T03:11:47;13.20;99.90
73360;DHT22;63092;43.582;19.528;2023-05-21T03:14:13;13.60;99.90
73360;DHT22;63092;43.582;19.528;2023-05-21T03:16:39;13.40;99.90
73360;DHT22;63092;43.582;19.528;2023-05-21T03:19:10;13.60;99.90
73360;DHT22;63092;43.582;19.528;2023-05-21T03:21:36;13.60;99.90
73360;DHT22;63092;43.582;19.528;2023-05-21T03:24:03;13.50;99.90
73360;DHT22;63092;43.582;19.528;2023-05-21T03:26:30;13.50;99.90
73360;DHT22;63092;43.582;19.528;2023-05-21T03:28:56;13.40;99.90
73360;DHT22;63092;43.582;19.528;2023-05-21T03:31:25;13.10;99.90
73360;DHT22;63092;43.582;19.528;2023-05-21T03:33:51;13.00;99.90
73360;DHT22;63092;43.582;19.528;2023-05-21T03:36:18;13.20;99.90
73360;DHT22;63092;43.582;19.528;2023-05-21T03:38:44;13.10;99.90
73360;DHT22;63092;43.582;19.528;2023-05-21T03:41:11;12.90;99.90
73360;DHT22;63092;43.582;19.528;2023-05-21T03:43:37;13.00;99.90
73360;DHT22;63092;43.582;19.528;2023-05-21T03:46:02;13.00;99.90
73360;DHT22;63092;43.582;19.528;2023-05-21T03:48:28;13.20;99.90
73360;DHT22;63092;43.582;19.528;2023-05-21T03:50:54;13.20;99.90
73360;DHT22;63092;43.582;19.528;2023-05-21T03:53:20;13.30;99.90
73360;DHT22;63092;43.582;19.528;2023-05-21T03:55:46;13.40;99.90
73360;DHT22;63092;43.582;19.528;2023-05-21T03:58:22;13.40;99.90
73360;DHT22;63092;43.582;19.528;2023-05-21T04:00:49;13.40;99.90
73360;DHT22;63092;43.582;19.528;2023-05-21T04:03:15;13.40;99.90
73360;DHT22;63092;43.582;19.528;2023-05-21T04:05:42;13.40;99.90
73360;DHT22;63092;43.582;19.528;2023-05-21T04:08:08;13.40;99.90
73360;DHT22;63092;43.582;19.528;2023-05-21T04:10:34;13.40;99.90
73360;DHT22;63092;43.582;19.528;2023-05-21T04:13:00;13.40;99.90
73360;DHT22;63092;43.582;19.528;2023-05-21T04:15:25;13.40;99.90
73360;DHT22;63092;43.582;19.528;2023-05-21T04:17:52;13.40;99.90
73360;DHT22;63092;43.582;19.528;2023-05-21T04:20:19;13.40;99.90
73360;DHT22;63092;43.582;19.528;2023-05-21T04:22:45;13.30;99.90
73360;DHT22;63092;43.582;19.528;2023-05-21T04:25:11;13.30;99.90
73360;DHT22;63092;43.582;19.528;2023-05-21T04:27:37;13.40;99.90
73360;DHT22;63092;43.582;19.528;2023-05-21T04:30:03;13.40;99.90
73360;DHT22;63092;43.582;19.528;2023-05-21T04:32:29;13.40;99.90
73360;DHT22;63092;43.582;19.528;2023-05-21T04:34:56;13.50;99.90
73360;DHT22;63092;43.582;19.528;2023-05-21T04:37:22;13.50;99.90
73360;DHT22;63092;43.582;19.528;2023-05-21T04:39:54;13.20;99.90
73360;DHT22;63092;43.582;19.528;2023-05-21T04:42:20;13.30;99.90
73360;DHT22;63092;43.582;19.528;2023-05-21T04:44:49;13.30;99.90
73360;DHT22;63092;43.582;19.528;2023-05-21T04:47:16;13.20;99.90
73360;DHT22;63092;43.582;19.528;2023-05-21T04:49:43;13.10;99.90
73360;DHT22;63092;43.582;19.528;2023-05-21T04:52:09;13.10;99.90
73360;DHT22;63092;43.582;19.528;2023-05-21T04:54:35;13.10;99.90
73360;DHT22;63092;43.582;19.528;2023-05-21T04:57:05;12.90;99.90
73360;DHT22;63092;43.582;19.528;2023-05-21T04:59:31;13.10;99.90
73360;DHT22;63092;43.582;19.528;2023-05-21T05:01:57;13.10;99.90
73360;DHT22;63092;43.582;19.528;2023-05-21T05:04:22;13.20;99.90
73360;DHT22;63092;43.582;19.528;2023-05-21T05:06:48;13.20;99.90
73360;DHT22;63092;43.582;19.528;2023-05-21T05:09:14;13.20;99.90
73360;DHT22;63092;43.582;19.528;2023-05-21T05:11:40;13.10;99.90
73360;DHT22;63092;43.582;19.528;2023-05-21T05:14:06;13.10;99.90
73360;DHT22;63092;43.582;19.528;2023-05-21T05:16:32;13.00;99.90
73360;DHT22;63092;43.582;19.528;2023-05-21T05:19:00;12.90;99.90
73360;DHT22;63092;43.582;19.528;2023-05-21T05:21:25;12.90;99.90
73360;DHT22;63092;43.582;19.528;2023-05-21T05:23:51;12.90;99.90
73360;DHT22;63092;43.582;19.528;2023-05-21T05:26:17;13.10;99.90
73360;DHT22;63092;43.582;19.528;2023-05-21T05:28:43;13.10;99.90
73360;DHT22;63092;43.582;19.528;2023-05-21T05:31:10;13.20;99.90
73360;DHT22;63092;43.582;19.528;2023-05-21T05:33:36;13.20;99.90
73360;DHT22;63092;43.582;19.528;2023-05-21T05:36:01;13.30;99.90
73360;DHT22;63092;43.582;19.528;2023-05-21T05:38:27;13.30;99.90
73360;DHT22;63092;43.582;19.528;2023-05-21T05:40:53;13.30;99.90
73360;DHT22;63092;43.582;19.528;2023-05-21T05:43:18;13.40;99.90
73360;DHT22;63092;43.582;19.528;2023-05-21T05:45:44;13.30;99.90
73360;DHT22;63092;43.582;19.528;2023-05-21T05:48:10;13.20;99.90
73360;DHT22;63092;43.582;19.528;2023-05-21T05:50:36;13.20;99.90
73360;DHT22;63092;43.582;19.528;2023-05-21T05:53:02;13.30;99.90
73360;DHT22;63092;43.582;19.528;2023-05-21T05:55:27;13.30;99.90
73360;DHT22;63092;43.582;19.528;2023-05-21T05:57:53;13.30;99.90
73360;DHT22;63092;43.582;19.528;2023-05-21T06:00:19;13.40;99.90
73360;DHT22;63092;43.582;19.528;2023-05-21T06:02:44;13.50;99.90
73360;DHT22;63092;43.582;19.528;2023-05-21T06:05:10;13.70;99.90
73360;DHT22;63092;43.582;19.528;2023-05-21T06:07:37;13.80;99.90
73360;DHT22;63092;43.582;19.528;2023-05-21T06:10:06;13.90;99.90
73360;DHT22;63092;43.582;19.528;2023-05-21T06:12:32;14.00;99.90
73360;DHT22;63092;43.582;19.528;2023-05-21T06:14:58;14.20;99.90
73360;DHT22;63092;43.582;19.528;2023-05-21T06:19:50;14.40;99.90
73360;DHT22;63092;43.582;19.528;2023-05-21T06:22:16;14.50;99.90
73360;DHT22;63092;43.582;19.528;2023-05-21T06:24:42;14.50;99.90
73360;DHT22;63092;43.582;19.528;2023-05-21T06:27:08;14.70;99.90
73360;DHT22;63092;43.582;19.528;2023-05-21T06:29:33;14.90;99.90
73360;DHT22;63092;43.582;19.528;2023-05-21T06:31:59;15.00;99.90
73360;DHT22;63092;43.582;19.528;2023-05-21T06:34:26;15.00;99.90
73360;DHT22;63092;43.582;19.528;2023-05-21T06:36:53;15.20;99.90
73360;DHT22;63092;43.582;19.528;2023-05-21T06:39:19;15.40;99.90
73360;DHT22;63092;43.582;19.528;2023-05-21T06:41:44;15.50;99.90
73360;DHT22;63092;43.582;19.528;2023-05-21T06:44:10;15.60;99.90
73360;DHT22;63092;43.582;19.528;2023-05-21T06:46:36;15.60;99.90
73360;DHT22;63092;43.582;19.528;2023-05-21T06:49:02;15.60;99.90
73360;DHT22;63092;43.582;19.528;2023-05-21T06:51:27;15.60;99.90
73360;DHT22;63092;43.582;19.528;2023-05-21T06:53:53;15.60;99.90
73360;DHT22;63092;43.582;19.528;2023-05-21T06:56:19;15.60;99.90
73360;DHT22;63092;43.582;19.528;2023-05-21T06:58:46;15.60;99.90
73360;DHT22;63092;43.582;19.528;2023-05-21T07:01:12;15.60;99.90
73360;DHT22;63092;43.582;19.528;2023-05-21T07:03:37;15.70;99.90
73360;DHT22;63092;43.582;19.528;2023-05-21T07:06:03;15.80;99.90
73360;DHT22;63092;43.582;19.528;2023-05-21T07:08:29;15.90;99.90
73360;DHT22;63092;43.582;19.528;2023-05-21T07:10:55;15.90;99.90
73360;DHT22;63092;43.582;19.528;2023-05-21T07:13:21;15.90;99.90
73360;DHT22;63092;43.582;19.528;2023-05-21T07:15:47;16.00;99.90
73360;DHT22;63092;43.582;19.528;2023-05-21T07:18:12;16.00;99.90
73360;DHT22;63092;43.582;19.528;2023-05-21T07:20:38;16.00;99.90
73360;DHT22;63092;43.582;19.528;2023-05-21T07:23:04;16.00;99.90
73360;DHT22;63092;43.582;19.528;2023-05-21T07:25:30;16.00;99.90
73360;DHT22;63092;43.582;19.528;2023-05-21T07:27:56;16.10;99.90
73360;DHT22;63092;43.582;19.528;2023-05-21T07:30:22;16.10;99.90
73360;DHT22;63092;43.582;19.528;2023-05-21T07:32:47;16.20;99.90
73360;DHT22;63092;43.582;19.528;2023-05-21T07:37:39;16.20;99.90
73360;DHT22;63092;43.582;19.528;2023-05-21T07:40:06;16.30;99.90
73360;DHT22;63092;43.582;19.528;2023-05-21T07:42:32;16.40;99.90
73360;DHT22;63092;43.582;19.528;2023-05-21T07:44:57;16.40;99.90
73360;DHT22;63092;43.582;19.528;2023-05-21T07:47:23;16.40;99.90
73360;DHT22;63092;43.582;19.528;2023-05-21T07:49:49;16.50;99.90
73360;DHT22;63092;43.582;19.528;2023-05-21T07:52:15;16.60;99.90
73360;DHT22;63092;43.582;19.528;2023-05-21T07:54:40;16.60;99.90
73360;DHT22;63092;43.582;19.528;2023-05-21T07:57:06;16.70;99.90
73360;DHT22;63092;43.582;19.528;2023-05-21T07:59:32;16.80;99.90
73360;DHT22;63092;43.582;19.528;2023-05-21T08:01:58;16.90;99.90
73360;DHT22;63092;43.582;19.528;2023-05-21T08:04:24;17.00;99.90
73360;DHT22;63092;43.582;19.528;2023-05-21T08:06:50;17.00;99.90
73360;DHT22;63092;43.582;19.528;2023-05-21T08:09:16;17.10;99.90
73360;DHT22;63092;43.582;19.528;2023-05-21T08:11:43;17.10;99.90
73360;DHT22;63092;43.582;19.528;2023-05-21T08:14:09;17.20;99.90
73360;DHT22;63092;43.582;19.528;2023-05-21T08:16:35;17.20;99.90
73360;DHT22;63092;43.582;19.528;2023-05-21T08:19:01;17.30;99.90
73360;DHT22;63092;43.582;19.528;2023-05-21T08:21:27;17.30;99.90
73360;DHT22;63092;43.582;19.528;2023-05-21T08:23:53;17.40;99.90
73360;DHT22;63092;43.582;19.528;2023-05-21T08:26:19;17.50;99.90
73360;DHT22;63092;43.582;19.528;2023-05-21T08:28:46;17.60;99.90
73360;DHT22;63092;43.582;19.528;2023-05-21T08:31:11;17.70;99.90
73360;DHT22;63092;43.582;19.528;2023-05-21T08:33:37;17.70;99.90
73360;DHT22;63092;43.582;19.528;2023-05-21T08:36:04;17.70;99.90
73360;DHT22;63092;43.582;19.528;2023-05-21T08:38:30;17.80;99.90
73360;DHT22;63092;43.582;19.528;2023-05-21T08:40:58;17.80;99.90
73360;DHT22;63092;43.582;19.528;2023-05-21T08:43:26;17.90;99.90
73360;DHT22;63092;43.582;19.528;2023-05-21T08:45:54;18.10;99.90
73360;DHT22;63092;43.582;19.528;2023-05-21T08:48:22;18.20;99.90
73360;DHT22;63092;43.582;19.528;2023-05-21T08:50:52;18.40;99.90
73360;DHT22;63092;43.582;19.528;2023-05-21T08:53:18;18.50;99.90
73360;DHT22;63092;43.582;19.528;2023-05-21T08:55:44;18.70;99.90
73360;DHT22;63092;43.582;19.528;2023-05-21T08:58:11;18.80;99.90
73360;DHT22;63092;43.582;19.528;2023-05-21T09:00:38;18.90;99.90
73360;DHT22;63092;43.582;19.528;2023-05-21T09:03:04;18.90;99.90
73360;DHT22;63092;43.582;19.528;2023-05-21T09:05:41;19.00;99.60
73360;DHT22;63092;43.582;19.528;2023-05-21T09:08:30;19.10;99.90
73360;DHT22;63092;43.582;19.528;2023-05-21T09:10:57;19.00;99.90
73360;DHT22;63092;43.582;19.528;2023-05-21T09:13:24;19.00;99.90
73360;DHT22;63092;43.582;19.528;2023-05-21T09:15:52;19.00;99.90
73360;DHT22;63092;43.582;19.528;2023-05-21T09:18:17;19.00;99.90
73360;DHT22;63092;43.582;19.528;2023-05-21T09:20:43;19.00;99.90
73360;DHT22;63092;43.582;19.528;2023-05-21T09:23:10;19.00;99.90
73360;DHT22;63092;43.582;19.528;2023-05-21T09:25:44;19.10;99.90
73360;DHT22;63092;43.582;19.528;2023-05-21T09:28:12;19.10;99.90
73360;DHT22;63092;43.582;19.528;2023-05-21T09:30:46;19.30;99.90
73360;DHT22;63092;43.582;19.528;2023-05-21T09:33:26;19.50;98.90
73360;DHT22;63092;43.582;19.528;2023-05-21T09:35:54;19.80;99.10
73360;DHT22;63092;43.582;19.528;2023-05-21T09:38:24;20.00;99.90
73360;DHT22;63092;43.582;19.528;2023-05-21T09:40:51;19.90;99.70
73360;DHT22;63092;43.582;19.528;2023-05-21T09:43:20;19.90;99.30
73360;DHT22;63092;43.582;19.528;2023-05-21T09:48:16;20.00;98.20
73360;DHT22;63092;43.582;19.528;2023-05-21T09:50:42;20.20;99.10
73360;DHT22;63092;43.582;19.528;2023-05-21T09:53:12;20.40;98.20
73360;DHT22;63092;43.582;19.528;2023-05-21T09:55:40;20.50;96.40
73360;DHT22;63092;43.582;19.528;2023-05-21T09:58:07;20.50;95.80
73360;DHT22;63092;43.582;19.528;2023-05-21T10:00:35;20.60;95.10
73360;DHT22;63092;43.582;19.528;2023-05-21T10:03:01;20.60;94.80
73360;DHT22;63092;43.582;19.528;2023-05-21T10:05:30;20.60;93.60
73360;DHT22;63092;43.582;19.528;2023-05-21T10:08:01;20.60;93.60
73360;DHT22;63092;43.582;19.528;2023-05-21T10:10:28;20.60;93.40
73360;DHT22;63092;43.582;19.528;2023-05-21T10:13:04;20.70;94.00
73360;DHT22;63092;43.582;19.528;2023-05-21T10:15:49;20.70;95.20
73360;DHT22;63092;43.582;19.528;2023-05-21T10:18:17;20.70;94.80
73360;DHT22;63092;43.582;19.528;2023-05-21T10:20:45;20.70;95.40
73360;DHT22;63092;43.582;19.528;2023-05-21T10:23:12;20.80;97.40
73360;DHT22;63092;43.582;19.528;2023-05-21T10:25:39;20.70;95.90
73360;DHT22;63092;43.582;19.528;2023-05-21T10:28:05;20.80;94.70
73360;DHT22;63092;43.582;19.528;2023-05-21T10:30:31;21.10;93.40
73360;DHT22;63092;43.582;19.528;2023-05-21T10:32:58;21.20;92.00
73360;DHT22;63092;43.582;19.528;2023-05-21T10:35:24;21.30;90.00
73360;DHT22;63092;43.582;19.528;2023-05-21T10:40:18;21.40;89.70
73360;DHT22;63092;43.582;19.528;2023-05-21T10:45:42;21.30;90.80
73360;DHT22;63092;43.582;19.528;2023-05-21T10:48:51;21.30;90.60
73360;DHT22;63092;43.582;19.528;2023-05-21T10:59:41;21.40;88.20
73360;DHT22;63092;43.582;19.528;2023-05-21T11:02:08;21.40;87.00
73360;DHT22;63092;43.582;19.528;2023-05-21T11:04:35;21.50;88.50
73360;DHT22;63092;43.582;19.528;2023-05-21T11:07:04;21.80;86.80
73360;DHT22;63092;43.582;19.528;2023-05-21T11:09:30;22.00;87.60
73360;DHT22;63092;43.582;19.528;2023-05-21T11:11:57;22.10;85.10
73360;DHT22;63092;43.582;19.528;2023-05-21T11:14:36;22.00;84.60
73360;DHT22;63092;43.582;19.528;2023-05-21T11:17:12;22.00;85.40
73360;DHT22;63092;43.582;19.528;2023-05-21T11:19:46;22.00;85.70
73360;DHT22;63092;43.582;19.528;2023-05-21T11:22:23;21.90;85.30
73360;DHT22;63092;43.582;19.528;2023-05-21T11:24:50;21.90;81.90
73360;DHT22;63092;43.582;19.528;2023-05-21T11:27:32;21.80;85.90
73360;DHT22;63092;43.582;19.528;2023-05-21T11:30:01;21.80;83.80
73360;DHT22;63092;43.582;19.528;2023-05-21T11:32:27;21.80;83.40
73360;DHT22;63092;43.582;19.528;2023-05-21T11:34:59;21.80;81.80
73360;DHT22;63092;43.582;19.528;2023-05-21T11:37:26;22.00;80.70
73360;DHT22;63092;43.582;19.528;2023-05-21T11:39:54;22.10;80.40
73360;DHT22;63092;43.582;19.528;2023-05-21T11:42:36;22.20;80.30
73360;DHT22;63092;43.582;19.528;2023-05-21T11:45:03;22.20;79.40
73360;DHT22;63092;43.582;19.528;2023-05-21T11:47:29;22.10;82.70
73360;DHT22;63092;43.582;19.528;2023-05-21T11:49:58;22.00;84.60
73360;DHT22;63092;43.582;19.528;2023-05-21T11:52:26;21.90;88.90
73360;DHT22;63092;43.582;19.528;2023-05-21T11:54:53;21.80;85.00
73360;DHT22;63092;43.582;19.528;2023-05-21T11:57:24;21.80;85.20
73360;DHT22;63092;43.582;19.528;2023-05-21T11:59:51;22.00;82.20
73360;DHT22;63092;43.582;19.528;2023-05-21T12:02:20;22.10;80.40
73360;DHT22;63092;43.582;19.528;2023-05-21T12:04:49;22.10;82.30
73360;DHT22;63092;43.582;19.528;2023-05-21T12:07:17;22.00;82.70
73360;DHT22;63092;43.582;19.528;2023-05-21T12:09:48;22.10;80.40
73360;DHT22;63092;43.582;19.528;2023-05-21T12:12:23;22.00;80.90
73360;DHT22;63092;43.582;19.528;2023-05-21T12:14:50;22.00;81.60
73360;DHT22;63092;43.582;19.528;2023-05-21T12:17:18;22.00;81.90
73360;DHT22;63092;43.582;19.528;2023-05-21T12:19:44;22.00;80.30
73360;DHT22;63092;43.582;19.528;2023-05-21T12:22:11;22.20;82.70
73360;DHT22;63092;43.582;19.528;2023-05-21T12:24:37;22.40;80.20
73360;DHT22;63092;43.582;19.528;2023-05-21T12:27:04;22.60;80.10
73360;DHT22;63092;43.582;19.528;2023-05-21T12:29:46;22.80;79.20
73360;DHT22;63092;43.582;19.528;2023-05-21T12:32:14;22.80;80.90
73360;DHT22;63092;43.582;19.528;2023-05-21T12:34:45;22.70;78.80
73360;DHT22;63092;43.582;19.528;2023-05-21T12:37:19;22.60;77.70
73360;DHT22;63092;43.582;19.528;2023-05-21T12:39:46;22.50;78.40
73360;DHT22;63092;43.582;19.528;2023-05-21T12:42:13;22.50;78.40
73360;DHT22;63092;43.582;19.528;2023-05-21T12:44:48;22.50;78.10
73360;DHT22;63092;43.582;19.528;2023-05-21T12:47:16;22.50;79.10
73360;DHT22;63092;43.582;19.528;2023-05-21T12:49:44;22.50;78.90
73360;DHT22;63092;43.582;19.528;2023-05-21T12:52:14;22.50;77.70
73360;DHT22;63092;43.582;19.528;2023-05-21T12:54:41;22.60;80.00
73360;DHT22;63092;43.582;19.528;2023-05-21T12:57:10;22.60;78.70
73360;DHT22;63092;43.582;19.528;2023-05-21T12:59:57;22.60;79.60
73360;DHT22;63092;43.582;19.528;2023-05-21T13:02:28;22.50;80.40
73360;DHT22;63092;43.582;19.528;2023-05-21T13:05:05;22.50;81.40
73360;DHT22;63092;43.582;19.528;2023-05-21T13:07:33;22.50;80.60
73360;DHT22;63092;43.582;19.528;2023-05-21T13:10:00;22.50;80.10
73360;DHT22;63092;43.582;19.528;2023-05-21T13:12:29;22.50;78.90
73360;DHT22;63092;43.582;19.528;2023-05-21T13:15:00;22.60;78.20
73360;DHT22;63092;43.582;19.528;2023-05-21T13:17:27;22.60;76.40
73360;DHT22;63092;43.582;19.528;2023-05-21T13:20:15;22.60;77.10
73360;DHT22;63092;43.582;19.528;2023-05-21T13:25:08;22.70;76.90
73360;DHT22;63092;43.582;19.528;2023-05-21T13:27:35;22.60;77.50
73360;DHT22;63092;43.582;19.528;2023-05-21T13:30:01;22.60;79.90
73360;DHT22;63092;43.582;19.528;2023-05-21T13:32:27;22.60;79.90
73360;DHT22;63092;43.582;19.528;2023-05-21T13:34:52;22.60;79.80
73360;DHT22;63092;43.582;19.528;2023-05-21T13:37:18;22.60;80.20
73360;DHT22;63092;43.582;19.528;2023-05-21T13:39:45;22.60;79.20
73360;DHT22;63092;43.582;19.528;2023-05-21T13:42:12;22.60;78.50
73360;DHT22;63092;43.582;19.528;2023-05-21T13:44:38;22.60;79.10
73360;DHT22;63092;43.582;19.528;2023-05-21T13:47:05;22.60;79.60
73360;DHT22;63092;43.582;19.528;2023-05-21T13:49:32;22.50;80.20
73360;DHT22;63092;43.582;19.528;2023-05-21T13:51:58;22.50;79.50
73360;DHT22;63092;43.582;19.528;2023-05-21T13:54:25;22.50;79.90
73360;DHT22;63092;43.582;19.528;2023-05-21T13:56:51;22.40;80.30
73360;DHT22;63092;43.582;19.528;2023-05-21T13:59:17;22.40;80.90
73360;DHT22;63092;43.582;19.528;2023-05-21T14:01:43;22.50;80.60
73360;DHT22;63092;43.582;19.528;2023-05-21T14:04:13;22.50;80.50
73360;DHT22;63092;43.582;19.528;2023-05-21T14:06:38;22.50;81.20
73360;DHT22;63092;43.582;19.528;2023-05-21T14:09:06;22.40;78.90
73360;DHT22;63092;43.582;19.528;2023-05-21T14:11:32;22.40;79.20
73360;DHT22;63092;43.582;19.528;2023-05-21T14:13:58;22.00;79.50
73360;DHT22;63092;43.582;19.528;2023-05-21T14:16:24;21.60;83.10
73360;DHT22;63092;43.582;19.528;2023-05-21T14:18:57;21.00;89.00
73360;DHT22;63092;43.582;19.528;2023-05-21T14:21:24;20.40;91.40
73360;DHT22;63092;43.582;19.528;2023-05-21T14:23:50;20.30;92.30
73360;DHT22;63092;43.582;19.528;2023-05-21T14:26:16;20.00;93.20
73360;DHT22;63092;43.582;19.528;2023-05-21T14:28:43;20.10;93.20
73360;DHT22;63092;43.582;19.528;2023-05-21T14:31:10;20.10;94.10
73360;DHT22;63092;43.582;19.528;2023-05-21T14:33:36;19.80;94.70
73360;DHT22;63092;43.582;19.528;2023-05-21T14:36:03;19.80;95.50
73360;DHT22;63092;43.582;19.528;2023-05-21T14:38:29;19.90;95.40
73360;DHT22;63092;43.582;19.528;2023-05-21T14:40:55;19.90;95.80
73360;DHT22;63092;43.582;19.528;2023-05-21T14:43:21;19.90;96.00
73360;DHT22;63092;43.582;19.528;2023-05-21T14:45:48;19.90;96.20
73360;DHT22;63092;43.582;19.528;2023-05-21T14:48:15;20.00;96.40
73360;DHT22;63092;43.582;19.528;2023-05-21T14:50:42;19.80;96.10
73360;DHT22;63092;43.582;19.528;2023-05-21T14:53:10;19.80;96.50
73360;DHT22;63092;43.582;19.528;2023-05-21T14:55:37;19.90;97.30
73360;DHT22;63092;43.582;19.528;2023-05-21T14:58:06;19.90;99.30
73360;DHT22;63092;43.582;19.528;2023-05-21T15:00:33;19.90;98.50
73360;DHT22;63092;43.582;19.528;2023-05-21T15:02:59;20.00;98.50
73360;DHT22;63092;43.582;19.528;2023-05-21T15:05:25;20.10;98.90
73360;DHT22;63092;43.582;19.528;2023-05-21T15:07:55;19.90;99.90
73360;DHT22;63092;43.582;19.528;2023-05-21T15:10:24;20.00;99.40
73360;DHT22;63092;43.582;19.528;2023-05-21T15:12:50;20.00;99.70
73360;DHT22;63092;43.582;19.528;2023-05-21T15:15:17;19.90;99.80
73360;DHT22;63092;43.582;19.528;2023-05-21T15:17:47;19.90;99.90
73360;DHT22;63092;43.582;19.528;2023-05-21T15:20:21;19.90;99.90
73360;DHT22;63092;43.582;19.528;2023-05-21T15:22:47;19.90;99.90
73360;DHT22;63092;43.582;19.528;2023-05-21T15:25:13;19.90;99.90
73360;DHT22;63092;43.582;19.528;2023-05-21T15:27:39;20.00;99.90
73360;DHT22;63092;43.582;19.528;2023-05-21T15:30:05;19.90;99.90
73360;DHT22;63092;43.582;19.528;2023-05-21T15:32:31;19.80;99.90
73360;DHT22;63092;43.582;19.528;2023-05-21T15:34:57;20.00;99.90
73360;DHT22;63092;43.582;19.528;2023-05-21T15:37:23;20.10;99.90
73360;DHT22;63092;43.582;19.528;2023-05-21T15:39:48;20.10;99.90
73360;DHT22;63092;43.582;19.528;2023-05-21T15:42:14;20.10;99.90